Time;durP1;ratioP1;P1;durP2;ratioP2;P2;SDS_P1;SDS_P2;PMS_P1;PMS_P2;Temp;Humidity;BMP_temperature;BMP_pressure;BME280_temperature;BME280_humidity;BME280_pressure;Samples;Min_cycle;Max_cycle;Signal;HPM_P1;HPM_P2
2022/02/21 00:02:27;;;;;;;0.20;0.20;;;5.80;99.90;;;;;;5119318;27;20030;-85
2022/02/21 00:04:53;;;;;;;0.10;0.10;;;6.40;99.90;;;;;;5135689;27;20045;-84
2022/02/21 00:07:20;;;;;;;0.10;0.10;;;5.70;99.90;;;;;;5101448;27;20043;-86
2022/02/21 00:09:47;;;;;;;0.10;0.10;;;6.20;99.90;;;;;;5101652;27;20035;-90
2022/02/21 00:12:14;;;;;;;0.10;0.10;;;5.50;99.90;;;;;;5118915;27;20129;-90
2022/02/21 00:14:41;;;;;;;0.10;0.10;;;5.50;99.90;;;;;;5135857;27;20495;-91
2022/02/21 00:17:08;;;;;;;0.20;0.20;;;5.30;99.90;;;;;;5101588;27;20074;-85
2022/02/21 00:19:34;;;;;;;0.10;0.10;;;5.20;99.90;;;;;;5135849;27;20043;-91
2022/02/21 00:22:01;;;;;;;0.10;0.10;;;5.20;99.90;;;;;;5118393;27;20031;-90
2022/02/21 00:24:28;;;;;;;0.10;0.10;;;5.10;99.90;;;;;;5117577;27;20096;-85
2022/02/21 00:26:55;;;;;;;0.10;0.10;;;5.00;99.90;;;;;;5101837;27;20035;-91
2022/02/21 00:29:22;;;;;;;0.10;0.10;;;5.00;99.90;;;;;;5118451;27;20038;-86
2022/02/21 00:31:48;;;;;;;0.10;0.10;;;5.00;99.90;;;;;;5101768;27;20122;-85
2022/02/21 00:34:15;;;;;;;0.20;0.20;;;5.10;99.90;;;;;;5101564;27;20043;-90
2022/02/21 00:36:42;;;;;;;0.22;0.22;;;5.10;99.90;;;;;;5118320;27;20368;-91
2022/02/21 00:39:08;;;;;;;0.20;0.20;;;5.10;99.90;;;;;;5101480;27;20042;-85
2022/02/21 00:41:35;;;;;;;0.15;0.15;;;5.20;99.90;;;;;;5101355;27;20168;-90
2022/02/21 00:44:02;;;;;;;0.10;0.10;;;5.20;99.90;;;;;;5102293;27;20122;-90
2022/02/21 00:46:29;;;;;;;0.10;0.10;;;5.20;99.90;;;;;;5117968;27;20671;-90
2022/02/21 00:48:55;;;;;;;0.10;0.10;;;5.30;99.90;;;;;;5102099;27;20484;-85
2022/02/21 00:51:22;;;;;;;0.20;0.20;;;5.60;99.90;;;;;;5100805;27;20043;-85
2022/02/21 00:53:49;;;;;;;0.10;0.10;;;5.20;99.90;;;;;;5101268;27;20035;-90
2022/02/21 00:56:15;;;;;;;0.10;0.10;;;5.80;99.90;;;;;;5118218;27;20430;-91
2022/02/21 00:58:42;;;;;;;0.10;0.10;;;5.30;99.90;;;;;;5117397;27;20103;-85
2022/02/21 01:01:09;;;;;;;0.10;0.10;;;5.30;99.90;;;;;;5101158;27;20035;-91
2022/02/21 01:03:36;;;;;;;0.10;0.10;;;5.30;99.90;;;;;;5117379;27;20031;-91
2022/02/21 01:06:02;;;;;;;0.10;0.10;;;5.30;99.90;;;;;;5116937;27;20095;-85
2022/02/21 01:08:29;;;;;;;0.10;0.10;;;5.30;99.90;;;;;;5100916;28;20039;-85
2022/02/21 01:10:56;;;;;;;0.10;0.10;;;6.30;99.90;;;;;;5117705;27;20039;-89
2022/02/21 01:13:23;;;;;;;0.10;0.10;;;5.40;99.90;;;;;;5135114;28;20081;-90
2022/02/21 01:15:50;;;;;;;0.10;0.10;;;5.40;99.90;;;;;;5101666;28;20134;-90
2022/02/21 01:18:16;;;;;;;0.10;0.10;;;5.40;99.90;;;;;;5133767;28;20043;-85
2022/02/21 01:20:43;;;;;;;0.10;0.10;;;5.30;99.90;;;;;;5134275;28;20412;-85
2022/02/21 01:23:10;;;;;;;0.10;0.10;;;5.40;99.90;;;;;;5100715;28;20514;-85
2022/02/21 01:25:36;;;;;;;0.10;0.10;;;5.30;99.90;;;;;;5134485;28;20038;-90
2022/02/21 01:28:05;;;;;;;0.10;0.10;;;5.30;99.90;;;;;;5118837;28;20400;-90
2022/02/21 01:30:32;;;;;;;0.10;0.10;;;5.30;99.90;;;;;;5117397;28;20035;-85
2022/02/21 01:32:58;;;;;;;0.10;0.10;;;5.30;99.90;;;;;;5135138;28;20045;-91
2022/02/21 01:35:25;;;;;;;0.10;0.10;;;5.30;99.90;;;;;;5101629;28;20514;-90
2022/02/21 01:37:52;;;;;;;0.10;0.10;;;6.00;99.90;;;;;;5116623;28;20035;-85
2022/02/21 01:40:20;;;;;;;0.10;0.10;;;5.20;99.90;;;;;;5100817;28;20041;-85
2022/02/21 01:42:47;;;;;;;0.10;0.10;;;5.10;99.90;;;;;;5134178;28;20043;-85
2022/02/21 01:45:14;;;;;;;0.20;0.20;;;5.40;99.90;;;;;;5100137;28;20102;-90
2022/02/21 01:47:41;;;;;;;0.10;0.10;;;5.00;99.90;;;;;;5100529;28;20078;-85
2022/02/21 01:50:08;;;;;;;0.10;0.10;;;5.00;99.90;;;;;;5116737;28;20055;-90
2022/02/21 01:52:35;;;;;;;0.10;0.10;;;5.00;99.90;;;;;;5117583;28;20039;-90
2022/02/21 01:55:05;;;;;;;0.17;0.17;;;5.00;99.90;;;;;;5134333;28;20035;-85
2022/02/21 01:57:33;;;;;;;0.10;0.10;;;5.00;99.90;;;;;;5117625;28;20064;-90
2022/02/21 01:59:59;;;;;;;0.13;0.13;;;5.60;99.90;;;;;;5147206;28;20185;-85
2022/02/21 02:02:26;;;;;;;0.13;0.13;;;4.90;99.90;;;;;;5114429;28;20081;-91
2022/02/21 02:04:53;;;;;;;0.20;0.20;;;5.00;99.90;;;;;;5113988;28;20040;-85
2022/02/21 02:07:20;;;;;;;0.17;0.17;;;5.50;99.90;;;;;;5113846;28;20036;-85
2022/02/21 02:09:46;;;;;;;0.10;0.10;;;5.00;99.90;;;;;;5112782;28;20040;-85
2022/02/21 02:12:13;;;;;;;0.10;0.10;;;5.00;99.90;;;;;;5096952;28;20058;-85
2022/02/21 02:14:41;;;;;;;0.10;0.10;;;5.70;99.90;;;;;;5130980;28;20050;-90
2022/02/21 02:17:15;;;;;;;1.95;0.85;;;5.10;99.90;;;;;;5113338;28;20050;-85
2022/02/21 02:19:45;;;;;;;0.10;0.10;;;5.00;99.90;;;;;;5129562;28;20035;-91
2022/02/21 02:22:30;;;;;;;0.10;0.10;;;5.00;99.90;;;;;;5130951;28;20127;-90
2022/02/21 02:24:57;;;;;;;0.10;0.10;;;5.00;99.90;;;;;;5129431;28;20067;-90
2022/02/21 02:27:25;;;;;;;0.10;0.10;;;5.00;99.90;;;;;;5112924;28;20118;-84
2022/02/21 02:29:54;;;;;;;0.20;0.20;;;5.10;99.90;;;;;;5129669;28;20120;-90
2022/02/21 02:32:22;;;;;;;0.10;0.10;;;5.00;99.90;;;;;;5100479;28;20101;-85
2022/02/21 02:34:51;;;;;;;0.20;0.20;;;5.00;99.90;;;;;;5133735;28;20044;-85
2022/02/21 02:37:21;;;;;;;0.20;0.20;;;5.00;99.90;;;;;;5117428;28;20047;-84
2022/02/21 02:39:48;;;;;;;0.10;0.10;;;5.00;99.90;;;;;;5117390;28;20042;-91
2022/02/21 02:42:15;;;;;;;0.10;0.10;;;4.80;99.90;;;;;;5116969;28;20044;-85
2022/02/21 02:44:42;;;;;;;0.10;0.10;;;4.50;99.90;;;;;;5116208;28;20032;-90
2022/02/21 02:47:11;;;;;;;0.20;0.20;;;4.30;99.90;;;;;;5117856;28;20465;-91
2022/02/21 02:49:38;;;;;;;0.10;0.10;;;4.10;99.90;;;;;;5100697;28;20433;-91
2022/02/21 02:52:05;;;;;;;0.10;0.10;;;4.10;99.90;;;;;;5134039;28;20535;-90
2022/02/21 02:54:33;;;;;;;0.17;0.17;;;4.10;99.90;;;;;;5133820;28;20039;-83
2022/02/21 02:57:00;;;;;;;0.10;0.10;;;4.20;99.90;;;;;;5116392;28;20043;-90
2022/02/21 02:59:27;;;;;;;0.20;0.20;;;4.40;99.90;;;;;;5132238;28;20055;-84
2022/02/21 03:01:54;;;;;;;0.10;0.10;;;4.30;99.90;;;;;;5149489;28;20108;-90
2022/02/21 03:04:21;;;;;;;0.10;0.10;;;4.40;99.90;;;;;;5100167;28;20126;-91
2022/02/21 03:06:48;;;;;;;0.20;0.20;;;5.00;99.90;;;;;;5116671;28;20510;-90
2022/02/21 03:09:15;;;;;;;0.10;0.10;;;4.40;99.90;;;;;;5133529;28;20126;-84
2022/02/21 03:11:41;;;;;;;0.10;0.10;;;5.60;99.90;;;;;;5099315;28;20039;-91
2022/02/21 03:14:10;;;;;;;0.15;0.15;;;4.50;99.90;;;;;;5115944;28;20054;-84
2022/02/21 03:16:36;;;;;;;0.17;0.17;;;4.50;99.90;;;;;;5100210;28;20069;-91
2022/02/21 03:19:03;;;;;;;0.40;0.38;;;4.90;99.90;;;;;;5116515;28;20487;-85
2022/02/21 03:21:30;;;;;;;0.10;0.10;;;5.20;99.90;;;;;;5115280;28;20038;-91
2022/02/21 03:23:57;;;;;;;0.10;0.10;;;4.50;99.90;;;;;;5132610;28;20047;-91
2022/02/21 03:26:23;;;;;;;0.15;0.15;;;4.40;99.90;;;;;;5099244;28;20096;-85
2022/02/21 03:28:50;;;;;;;0.20;0.20;;;5.30;99.90;;;;;;5133239;28;20044;-90
2022/02/21 03:31:17;;;;;;;0.10;0.10;;;4.50;99.90;;;;;;5117302;28;20057;-91
2022/02/21 03:33:43;;;;;;;0.10;0.10;;;4.40;99.90;;;;;;5115621;28;20132;-90
2022/02/21 03:36:10;;;;;;;0.13;0.13;;;4.50;99.90;;;;;;5132644;28;20039;-91
2022/02/21 03:38:37;;;;;;;0.20;0.20;;;4.40;99.90;;;;;;5150253;28;20035;-90
2022/02/21 03:41:04;;;;;;;0.10;0.10;;;4.60;99.90;;;;;;5114557;28;20480;-85
2022/02/21 03:43:31;;;;;;;0.10;0.10;;;4.50;99.90;;;;;;5099053;28;20043;-91
2022/02/21 03:45:57;;;;;;;0.10;0.10;;;4.50;99.90;;;;;;5115565;28;20130;-90
2022/02/21 03:48:24;;;;;;;0.15;0.15;;;4.50;99.90;;;;;;5116356;28;20036;-85
2022/02/21 03:50:51;;;;;;;0.10;0.10;;;4.50;99.90;;;;;;5100809;27;20075;-91
2022/02/21 03:53:17;;;;;;;0.10;0.10;;;4.50;99.90;;;;;;5100997;28;20044;-85
2022/02/21 03:55:45;;;;;;;0.10;0.10;;;4.90;99.90;;;;;;5098770;28;20039;-83
2022/02/21 03:58:12;;;;;;;0.10;0.10;;;4.50;99.90;;;;;;5114582;28;20048;-90
2022/02/21 04:00:39;;;;;;;0.10;0.10;;;4.40;99.90;;;;;;5098848;28;20167;-91
2022/02/21 04:03:06;;;;;;;0.20;0.20;;;4.40;99.90;;;;;;5132312;28;20043;-90
2022/02/21 04:05:33;;;;;;;0.10;0.10;;;5.20;99.90;;;;;;5115408;28;20756;-90
2022/02/21 04:07:59;;;;;;;0.17;0.17;;;4.70;99.90;;;;;;5098370;28;20040;-91
2022/02/21 04:10:26;;;;;;;0.10;0.10;;;5.60;99.90;;;;;;5115468;28;20058;-90
2022/02/21 04:12:53;;;;;;;0.10;0.10;;;4.40;99.90;;;;;;5132775;28;20040;-89
2022/02/21 04:15:20;;;;;;;0.10;0.10;;;4.40;99.90;;;;;;5115272;28;20093;-85
2022/02/21 04:17:49;;;;;;;0.10;0.10;;;4.30;99.90;;;;;;5132058;28;20032;-90
2022/02/21 04:20:19;;;;;;;0.10;0.10;;;4.40;99.90;;;;;;5131998;28;20039;-91
2022/02/21 04:22:46;;;;;;;0.20;0.20;;;5.10;99.90;;;;;;5131623;28;20036;-85
2022/02/21 04:25:13;;;;;;;0.10;0.10;;;4.20;99.90;;;;;;5114051;28;20053;-91
2022/02/21 04:27:40;;;;;;;0.10;0.10;;;4.10;99.90;;;;;;5115877;28;20031;-84
2022/02/21 04:30:07;;;;;;;0.20;0.20;;;4.20;99.90;;;;;;5131913;28;20553;-90
2022/02/21 04:32:39;;;;;;;0.20;0.20;;;4.10;99.90;;;;;;5132086;28;20126;-85
2022/02/21 04:35:07;;;;;;;0.10;0.10;;;4.30;99.90;;;;;;5131008;28;20047;-91
2022/02/21 04:37:35;;;;;;;0.10;0.10;;;3.80;99.90;;;;;;5132237;28;20094;-85
2022/02/21 04:40:06;;;;;;;0.10;0.10;;;4.20;99.90;;;;;;5132145;28;20035;-86
2022/02/21 04:42:33;;;;;;;0.10;0.10;;;3.70;99.90;;;;;;5130856;28;20040;-85
2022/02/21 04:45:00;;;;;;;0.10;0.10;;;3.60;99.90;;;;;;5148385;28;20094;-91
2022/02/21 04:47:27;;;;;;;0.10;0.10;;;4.20;99.90;;;;;;5114669;28;20040;-85
2022/02/21 04:49:53;;;;;;;0.15;0.15;;;4.00;99.90;;;;;;5130895;28;20036;-91
2022/02/21 04:52:21;;;;;;;0.10;0.10;;;3.60;99.90;;;;;;5096791;28;20035;-85
2022/02/21 04:54:48;;;;;;;0.10;0.10;;;3.70;99.90;;;;;;5130105;28;20047;-85
2022/02/21 04:57:15;;;;;;;0.20;0.20;;;4.40;99.90;;;;;;5113798;28;20055;-91
2022/02/21 04:59:41;;;;;;;0.10;0.10;;;4.20;99.90;;;;;;5148518;28;20136;-85
2022/02/21 05:02:08;;;;;;;0.13;0.13;;;4.20;99.90;;;;;;5097251;28;20097;-85
2022/02/21 05:04:35;;;;;;;0.20;0.20;;;3.90;99.90;;;;;;5130865;28;20040;-90
2022/02/21 05:07:02;;;;;;;0.20;0.20;;;4.10;99.90;;;;;;5114698;28;20040;-85
2022/02/21 05:09:28;;;;;;;0.13;0.13;;;4.00;99.90;;;;;;5098167;28;20031;-85
2022/02/21 05:11:55;;;;;;;0.10;0.10;;;4.00;99.90;;;;;;5115422;28;20035;-85
2022/02/21 05:14:24;;;;;;;0.10;0.10;;;4.00;99.90;;;;;;5096903;28;20099;-85
2022/02/21 05:16:51;;;;;;;0.10;0.10;;;4.10;99.90;;;;;;5114003;28;20044;-85
2022/02/21 05:19:18;;;;;;;0.10;0.10;;;4.10;99.90;;;;;;5113214;28;20040;-85
2022/02/21 05:21:45;;;;;;;0.10;0.10;;;4.10;99.90;;;;;;5131398;28;20042;-85
2022/02/21 05:24:12;;;;;;;0.20;0.20;;;4.10;99.90;;;;;;5097484;28;20071;-85
2022/02/21 05:26:38;;;;;;;0.10;0.10;;;4.10;99.90;;;;;;5131818;28;20031;-90
2022/02/21 05:29:05;;;;;;;0.10;0.10;;;4.70;99.90;;;;;;5097231;28;20427;-86
2022/02/21 05:31:32;;;;;;;0.20;0.20;;;5.00;99.90;;;;;;5097230;28;20039;-85
2022/02/21 05:33:59;;;;;;;0.10;0.10;;;3.90;99.90;;;;;;5131249;28;20040;-85
2022/02/21 05:36:25;;;;;;;0.10;0.10;;;3.80;99.90;;;;;;5114229;28;20120;-90
2022/02/21 05:38:52;;;;;;;0.10;0.10;;;3.80;99.90;;;;;;5114999;28;20036;-85
2022/02/21 05:41:19;;;;;;;0.20;0.20;;;4.70;99.90;;;;;;5097215;28;20397;-85
2022/02/21 05:43:46;;;;;;;0.10;0.10;;;4.00;99.90;;;;;;5098075;28;20480;-85
2022/02/21 05:46:12;;;;;;;0.20;0.20;;;3.90;99.90;;;;;;5096799;28;20043;-90
2022/02/21 05:48:39;;;;;;;0.10;0.10;;;4.00;99.90;;;;;;5114372;28;20039;-85
2022/02/21 05:51:06;;;;;;;0.17;0.17;;;4.70;99.90;;;;;;5113856;28;20035;-85
2022/02/21 05:53:32;;;;;;;0.20;0.20;;;4.10;99.90;;;;;;5096419;28;20632;-85
2022/02/21 05:55:59;;;;;;;0.20;0.20;;;4.10;99.90;;;;;;5113744;28;20504;-85
2022/02/21 05:58:26;;;;;;;0.17;0.17;;;4.20;99.90;;;;;;5113135;28;20058;-85
2022/02/21 06:00:55;;;;;;;0.20;0.20;;;4.20;99.90;;;;;;5130896;28;20126;-90
2022/02/21 06:03:22;;;;;;;0.10;0.10;;;4.40;99.90;;;;;;5098161;28;20036;-85
2022/02/21 06:05:48;;;;;;;0.20;0.20;;;4.20;99.90;;;;;;5100174;28;20141;-90
2022/02/21 06:08:15;;;;;;;0.20;0.20;;;4.20;99.90;;;;;;5118044;28;20040;-91
2022/02/21 06:10:42;;;;;;;0.10;0.10;;;4.20;99.90;;;;;;5134896;28;20035;-91
2022/02/21 06:13:08;;;;;;;0.10;0.10;;;4.30;99.90;;;;;;5117227;28;20047;-86
2022/02/21 06:15:35;;;;;;;0.20;0.20;;;4.20;99.90;;;;;;5117323;28;20051;-85
2022/02/21 06:18:02;;;;;;;0.10;0.10;;;4.30;99.90;;;;;;5117698;28;20177;-91
2022/02/21 06:20:28;;;;;;;0.20;0.20;;;4.30;99.90;;;;;;5117990;28;20043;-91
2022/02/21 06:22:55;;;;;;;0.10;0.10;;;4.30;99.90;;;;;;5101079;28;20058;-85
2022/02/21 06:25:22;;;;;;;0.10;0.10;;;4.20;99.90;;;;;;5117399;28;20040;-91
2022/02/21 06:27:49;;;;;;;0.10;0.10;;;4.20;99.90;;;;;;5134650;28;20051;-90
2022/02/21 06:30:15;;;;;;;4.00;0.90;;;4.20;99.90;;;;;;5116502;28;20040;-85
2022/02/21 06:32:42;;;;;;;0.15;0.15;;;5.10;99.90;;;;;;5099800;28;20097;-92
2022/02/21 06:35:10;;;;;;;0.20;0.20;;;5.40;99.90;;;;;;5117612;28;20078;-85
2022/02/21 06:37:49;;;;;;;0.17;0.17;;;4.20;99.90;;;;;;5134001;28;20044;-85
2022/02/21 06:40:16;;;;;;;0.20;0.20;;;4.00;99.90;;;;;;5132868;28;20035;-85
2022/02/21 06:42:43;;;;;;;0.20;0.20;;;3.80;99.90;;;;;;5117113;28;20454;-85
2022/02/21 06:45:10;;;;;;;0.10;0.10;;;4.70;99.90;;;;;;5100898;28;20075;-90
2022/02/21 06:47:37;;;;;;;0.10;0.10;;;4.40;99.90;;;;;;5115709;28;20051;-85
2022/02/21 06:50:06;;;;;;;0.10;0.10;;;4.50;99.90;;;;;;5149795;28;20507;-91
2022/02/21 06:52:33;;;;;;;0.13;0.13;;;3.70;99.90;;;;;;5148990;28;20046;-90
2022/02/21 06:55:01;;;;;;;0.17;0.17;;;3.90;99.90;;;;;;5133366;28;20488;-91
2022/02/21 06:57:27;;;;;;;0.10;0.10;;;4.70;99.90;;;;;;5149779;28;20083;-85
2022/02/21 06:59:55;;;;;;;0.10;0.10;;;3.90;99.90;;;;;;5120348;28;20501;-86
2022/02/21 07:02:22;;;;;;;0.10;0.10;;;3.90;99.90;;;;;;5115892;28;20050;-90
2022/02/21 07:04:49;;;;;;;0.10;0.10;;;3.90;99.90;;;;;;5116938;28;20031;-90
2022/02/21 07:07:15;;;;;;;0.10;0.10;;;4.00;99.90;;;;;;5151029;28;20035;-90
2022/02/21 07:09:42;;;;;;;0.10;0.10;;;4.00;99.90;;;;;;5116833;28;20039;-91
2022/02/21 07:12:09;;;;;;;0.10;0.10;;;4.00;99.90;;;;;;5116863;28;20432;-85
2022/02/21 07:14:36;;;;;;;0.10;0.10;;;4.00;99.90;;;;;;5099845;28;20042;-84
2022/02/21 07:17:03;;;;;;;0.10;0.10;;;4.00;99.90;;;;;;5098320;28;20408;-86
2022/02/21 07:19:29;;;;;;;0.20;0.20;;;4.10;99.90;;;;;;5099413;28;20054;-91
2022/02/21 07:21:56;;;;;;;0.17;0.17;;;5.30;99.90;;;;;;5133402;28;20039;-91
2022/02/21 07:24:23;;;;;;;0.20;0.20;;;4.40;99.90;;;;;;5133389;28;20549;-91
2022/02/21 07:26:50;;;;;;;0.20;0.20;;;4.10;99.90;;;;;;5100073;28;20404;-85
2022/02/21 07:29:17;;;;;;;0.10;0.10;;;4.80;99.90;;;;;;5133239;28;20568;-91
2022/02/21 07:31:43;;;;;;;0.22;0.22;;;4.20;99.90;;;;;;5115681;28;20126;-86
2022/02/21 07:34:10;;;;;;;0.10;0.10;;;5.00;99.90;;;;;;5099134;28;20046;-90
2022/02/21 07:36:37;;;;;;;0.10;0.10;;;5.00;99.90;;;;;;5115632;28;20046;-86
2022/02/21 07:39:04;;;;;;;0.20;0.20;;;4.20;99.90;;;;;;5099539;28;20040;-86
2022/02/21 07:41:30;;;;;;;0.20;0.20;;;4.30;99.90;;;;;;5132038;28;20492;-91
2022/02/21 07:43:57;;;;;;;0.10;0.10;;;4.20;99.90;;;;;;5098600;28;20036;-85
2022/02/21 07:46:24;;;;;;;0.10;0.10;;;4.20;99.90;;;;;;5099567;28;20502;-91
2022/02/21 07:48:50;;;;;;;0.10;0.10;;;4.30;99.90;;;;;;5115189;28;20101;-91
2022/02/21 07:51:17;;;;;;;0.10;0.10;;;4.50;99.90;;;;;;5098928;28;20039;-84
2022/02/21 07:53:44;;;;;;;0.10;0.10;;;4.30;99.90;;;;;;5131975;28;20126;-90
2022/02/21 07:56:11;;;;;;;0.10;0.10;;;4.40;99.90;;;;;;5098127;28;20044;-88
2022/02/21 07:58:37;;;;;;;0.10;0.10;;;4.30;99.90;;;;;;5131009;28;20051;-88
2022/02/21 08:01:04;;;;;;;0.10;0.10;;;4.30;99.90;;;;;;5115530;28;20043;-90
2022/02/21 08:03:31;;;;;;;0.10;0.10;;;4.40;99.90;;;;;;5098357;28;20043;-86
2022/02/21 08:05:58;;;;;;;0.10;0.10;;;4.80;99.90;;;;;;5114358;28;20091;-90
2022/02/21 08:08:27;;;;;;;0.10;0.10;;;5.40;99.90;;;;;;5098990;28;20039;-87
2022/02/21 08:10:53;;;;;;;0.10;0.10;;;4.40;99.90;;;;;;5115207;28;20040;-89
2022/02/21 08:13:20;;;;;;;0.10;0.10;;;5.50;99.90;;;;;;5098243;28;20050;-86
2022/02/21 08:15:47;;;;;;;0.10;0.10;;;5.30;99.90;;;;;;5131259;28;20083;-89
2022/02/21 08:18:14;;;;;;;0.10;0.10;;;4.50;99.90;;;;;;5115286;28;20043;-86
2022/02/21 08:20:40;;;;;;;0.10;0.10;;;4.80;99.90;;;;;;5115009;28;20040;-89
2022/02/21 08:23:07;;;;;;;0.10;0.10;;;4.90;99.90;;;;;;5119116;28;20556;-86
2022/02/21 08:25:35;;;;;;;0.10;0.10;;;4.90;99.90;;;;;;5097576;28;20050;-86
2022/02/21 08:28:02;;;;;;;0.20;0.20;;;4.50;99.90;;;;;;5098883;28;20042;-89
2022/02/21 08:30:29;;;;;;;0.10;0.10;;;4.50;99.90;;;;;;5114939;28;20365;-88
2022/02/21 08:32:56;;;;;;;0.10;0.10;;;4.50;99.90;;;;;;5131490;28;20097;-89
2022/02/21 08:35:23;;;;;;;0.10;0.10;;;4.70;99.90;;;;;;5131445;28;20073;-88
2022/02/21 08:37:50;;;;;;;0.10;0.10;;;4.40;99.90;;;;;;5131262;28;20086;-88
2022/02/21 08:40:18;;;;;;;0.10;0.10;;;4.40;99.90;;;;;;5130159;28;20035;-89
2022/02/21 08:42:45;;;;;;;0.10;0.10;;;4.30;99.90;;;;;;5112738;28;20067;-89
2022/02/21 08:45:12;;;;;;;0.10;0.10;;;4.30;99.90;;;;;;5112984;28;20075;-88
2022/02/21 08:47:39;;;;;;;0.13;0.13;;;4.20;99.90;;;;;;5113345;28;20034;-87
2022/02/21 08:50:10;;;;;;;0.10;0.10;;;4.20;99.90;;;;;;5113780;28;20407;-87
2022/02/21 08:52:41;;;;;;;0.10;0.10;;;4.10;99.90;;;;;;5113589;28;20036;-87
2022/02/21 08:55:15;;;;;;;0.10;0.10;;;4.10;99.90;;;;;;5114619;28;20134;-87
2022/02/21 08:57:44;;;;;;;0.10;0.10;;;4.80;99.90;;;;;;5110301;28;20113;-86
2022/02/21 09:00:13;;;;;;;0.10;0.10;;;5.00;99.90;;;;;;5093265;28;20556;-87
2022/02/21 09:02:39;;;;;;;0.15;0.15;;;4.00;99.90;;;;;;5110852;28;20039;-87
2022/02/21 09:05:07;;;;;;;0.10;0.10;;;4.00;99.90;;;;;;5109495;28;20515;-86
2022/02/21 09:07:33;;;;;;;0.10;0.10;;;3.90;99.90;;;;;;5091240;28;20411;-87
2022/02/21 09:10:00;;;;;;;0.10;0.10;;;3.90;99.90;;;;;;5097354;28;20040;-86
2022/02/21 09:12:27;;;;;;;0.20;0.20;;;3.90;99.90;;;;;;5097083;28;20081;-86
2022/02/21 09:14:56;;;;;;;0.10;0.10;;;3.70;99.90;;;;;;5112988;28;20496;-88
2022/02/21 09:17:23;;;;;;;0.10;0.10;;;4.20;99.90;;;;;;5113295;28;20045;-87
2022/02/21 09:19:50;;;;;;;0.10;0.10;;;3.80;99.90;;;;;;5113894;28;20023;-88
2022/02/21 09:22:16;;;;;;;0.10;0.10;;;3.50;99.90;;;;;;5130046;28;20496;-87
2022/02/21 09:24:46;;;;;;;0.10;0.10;;;3.60;99.90;;;;;;5114536;28;20039;-87
2022/02/21 09:27:13;;;;;;;0.10;0.10;;;3.20;99.90;;;;;;5130559;28;20036;-85
2022/02/21 09:29:39;;;;;;;0.10;0.10;;;3.00;99.90;;;;;;5111283;28;20051;-86
2022/02/21 09:32:06;;;;;;;0.10;0.10;;;2.10;99.90;;;;;;5096647;28;20035;-86
2022/02/21 09:34:33;;;;;;;0.10;0.10;;;2.90;99.90;;;;;;5112638;28;20032;-86
2022/02/21 09:37:00;;;;;;;0.20;0.20;;;3.40;99.90;;;;;;5113466;28;20046;-86
2022/02/21 09:39:27;;;;;;;0.10;0.10;;;3.20;99.90;;;;;;5130618;28;20047;-86
2022/02/21 09:41:55;;;;;;;0.10;0.10;;;3.40;99.90;;;;;;5117265;28;20126;-87
2022/02/21 09:44:21;;;;;;;0.20;0.20;;;2.70;99.90;;;;;;5134047;28;20039;-87
2022/02/21 09:46:49;;;;;;;0.10;0.10;;;2.50;99.90;;;;;;5117100;28;20131;-87
2022/02/21 09:49:17;;;;;;;0.13;0.13;;;2.60;99.90;;;;;;5117005;28;20593;-86
2022/02/21 09:51:45;;;;;;;0.10;0.10;;;3.30;99.90;;;;;;5150111;28;20043;-86
2022/02/21 09:54:13;;;;;;;0.10;0.10;;;2.50;99.90;;;;;;5116606;28;20055;-87
2022/02/21 09:56:42;;;;;;;0.20;0.20;;;2.60;99.90;;;;;;5116621;28;20051;-86
2022/02/21 09:59:10;;;;;;;0.10;0.10;;;2.60;99.90;;;;;;5132861;28;20047;-86
2022/02/21 10:01:37;;;;;;;0.10;0.10;;;2.50;99.90;;;;;;5135183;28;20089;-87
2022/02/21 10:04:05;;;;;;;0.20;0.20;;;2.50;99.90;;;;;;5117483;28;20032;-86
2022/02/21 10:06:32;;;;;;;0.10;0.10;;;2.40;99.90;;;;;;5133771;28;20075;-86
2022/02/21 10:09:01;;;;;;;0.20;0.20;;;2.50;99.90;;;;;;5134058;28;20045;-87
2022/02/21 10:11:29;;;;;;;0.20;0.20;;;2.60;99.90;;;;;;5134114;28;20036;-86
2022/02/21 10:14:07;;;;;;;0.10;0.10;;;2.60;99.90;;;;;;5116618;28;20411;-87
2022/02/21 10:16:48;;;;;;;0.10;0.10;;;2.50;99.90;;;;;;5113436;28;20043;-87
2022/02/21 10:19:36;;;;;;;0.20;0.20;;;2.60;99.90;;;;;;5132820;28;20036;-86
2022/02/21 10:22:11;;;;;;;0.10;0.10;;;2.60;99.90;;;;;;5133370;28;20036;-86
2022/02/21 10:24:49;;;;;;;0.20;0.20;;;3.60;99.90;;;;;;5116470;28;20105;-87
2022/02/21 10:27:20;;;;;;;0.10;0.10;;;2.70;99.90;;;;;;5133144;28;20046;-87
2022/02/21 10:29:57;;;;;;;0.20;0.20;;;2.60;99.90;;;;;;5133636;28;20132;-87
2022/02/21 10:32:26;;;;;;;0.20;0.20;;;2.70;99.90;;;;;;5133655;28;20549;-88
2022/02/21 10:34:54;;;;;;;0.20;0.20;;;2.50;99.90;;;;;;5132825;28;20039;-86
2022/02/21 10:37:26;;;;;;;0.10;0.10;;;2.50;99.90;;;;;;5150205;28;20051;-88
2022/02/21 10:40:11;;;;;;;0.20;0.20;;;2.40;99.90;;;;;;5133110;28;20038;-87
2022/02/21 10:42:39;;;;;;;0.20;0.20;;;2.40;99.90;;;;;;5132966;28;20035;-86
2022/02/21 10:45:13;;;;;;;0.10;0.10;;;2.30;99.90;;;;;;5115991;28;20046;-86
2022/02/21 10:47:57;;;;;;;0.20;0.20;;;2.20;99.90;;;;;;5132685;28;20050;-87
2022/02/21 10:50:24;;;;;;;0.10;0.10;;;2.10;99.90;;;;;;5117635;28;20124;-87
2022/02/21 10:52:51;;;;;;;0.20;0.20;;;2.10;99.90;;;;;;5134248;28;20429;-88
2022/02/21 10:55:18;;;;;;;0.30;0.30;;;1.90;99.90;;;;;;5116466;28;20035;-87
2022/02/21 10:57:47;;;;;;;0.10;0.10;;;1.80;99.90;;;;;;5115378;28;20075;-87
2022/02/21 11:00:14;;;;;;;0.20;0.20;;;2.10;99.90;;;;;;5131733;28;20043;-87
2022/02/21 11:02:44;;;;;;;0.20;0.20;;;1.70;99.90;;;;;;5132664;28;20130;-89
2022/02/21 11:05:11;;;;;;;0.10;0.10;;;1.60;99.90;;;;;;5133182;28;20043;-88
2022/02/21 11:07:41;;;;;;;0.20;0.20;;;1.60;99.90;;;;;;5116072;28;20085;-88
2022/02/21 11:10:09;;;;;;;0.20;0.20;;;1.50;99.90;;;;;;5116434;28;20381;-86
2022/02/21 11:12:39;;;;;;;0.20;0.20;;;1.50;99.90;;;;;;5132238;28;20036;-90
2022/02/21 11:15:06;;;;;;;0.20;0.20;;;1.60;99.90;;;;;;5149275;28;20105;-90
2022/02/21 11:17:36;;;;;;;0.17;0.17;;;1.40;99.90;;;;;;5115442;28;20857;-87
2022/02/21 11:20:07;;;;;;;0.28;0.28;;;1.40;99.90;;;;;;5148423;28;20043;-85
2022/02/21 11:22:35;;;;;;;0.20;0.20;;;1.40;99.90;;;;;;5132457;28;20411;-89
2022/02/21 11:25:07;;;;;;;0.20;0.20;;;1.40;99.90;;;;;;5131799;28;20785;-85
2022/02/21 11:27:38;;;;;;;0.20;0.20;;;1.30;99.90;;;;;;5131755;28;20040;-85
2022/02/21 11:30:17;;;;;;;0.20;0.20;;;1.30;99.90;;;;;;5132314;28;20064;-88
2022/02/21 11:33:07;;;;;;;0.20;0.20;;;1.90;99.90;;;;;;5134241;28;20035;-91
2022/02/21 11:35:36;;;;;;;0.20;0.20;;;1.20;99.90;;;;;;5134852;28;20042;-83
2022/02/21 11:38:34;;;;;;;0.30;0.30;;;1.20;99.90;;;;;;5133223;28;20039;-83
2022/02/21 11:41:05;;;;;;;0.30;0.30;;;1.20;99.90;;;;;;5132019;28;20035;-90
2022/02/21 11:43:52;;;;;;;0.20;0.20;;;1.20;99.90;;;;;;5133497;28;20065;-90
2022/02/21 11:46:26;;;;;;;0.30;0.30;;;1.10;99.90;;;;;;5150953;28;20100;-90
2022/02/21 11:49:07;;;;;;;0.20;0.20;;;1.20;99.90;;;;;;5133368;28;20039;-84
2022/02/21 11:51:38;;;;;;;0.30;0.30;;;1.10;99.90;;;;;;5112513;28;20040;-89
2022/02/21 11:54:14;;;;;;;0.20;0.20;;;1.10;99.90;;;;;;5111793;28;20082;-84
2022/02/21 11:56:50;;;;;;;0.20;0.20;;;1.20;99.90;;;;;;5122894;28;20036;-83
2022/02/21 11:59:24;;;;;;;0.20;0.20;;;1.30;99.90;;;;;;5132808;27;20035;-91
2022/02/21 12:02:12;;;;;;;0.20;0.20;;;1.30;99.90;;;;;;5135108;27;20059;-82
2022/02/21 12:04:46;;;;;;;0.20;0.20;;;1.30;99.90;;;;;;5136988;27;20469;-82
2022/02/21 12:07:25;;;;;;;0.20;0.20;;;1.80;99.90;;;;;;5134559;27;20046;-81
2022/02/21 12:10:12;;;;;;;0.10;0.10;;;1.40;99.90;;;;;;5134222;27;20051;-89
2022/02/21 12:12:52;;;;;;;0.22;0.22;;;1.50;99.90;;;;;;5151695;27;20035;-90
2022/02/21 12:15:20;;;;;;;0.20;0.20;;;1.70;99.90;;;;;;5169468;27;20091;-84
2022/02/21 12:17:47;;;;;;;0.22;0.22;;;1.80;99.90;;;;;;5131538;27;20042;-84
2022/02/21 12:20:32;;;;;;;0.20;0.20;;;3.10;99.90;;;;;;5133471;27;20031;-91
2022/02/21 12:23:05;;;;;;;0.20;0.20;;;1.90;99.90;;;;;;5134984;27;20406;-83
2022/02/21 12:25:40;;;;;;;0.20;0.20;;;2.00;99.90;;;;;;5152666;27;20081;-84
2022/02/21 12:28:17;;;;;;;0.20;0.20;;;2.10;99.90;;;;;;5133642;27;20487;-83
2022/02/21 12:30:47;;;;;;;0.20;0.20;;;2.50;99.90;;;;;;5134057;27;20043;-84
2022/02/21 12:33:32;;;;;;;0.20;0.20;;;2.20;99.90;;;;;;5134006;27;20039;-89
2022/02/21 12:36:07;;;;;;;0.20;0.20;;;2.30;99.90;;;;;;5131091;27;20117;-84
2022/02/21 12:38:42;;;;;;;0.20;0.20;;;2.40;99.90;;;;;;5149091;27;20039;-85
2022/02/21 12:41:11;;;;;;;0.20;0.20;;;2.50;99.90;;;;;;5136094;27;20031;-88
2022/02/21 12:43:52;;;;;;;0.20;0.20;;;2.60;99.90;;;;;;5109151;27;20038;-89
2022/02/21 12:46:23;;;;;;;0.20;0.20;;;2.60;99.90;;;;;;5150468;27;20854;-85
2022/02/21 12:48:50;;;;;;;0.10;0.10;;;2.80;99.90;;;;;;5113896;27;20039;-84
2022/02/21 12:51:29;;;;;;;0.13;0.13;;;2.90;99.90;;;;;;5096708;28;20047;-84
2022/02/21 12:54:02;;;;;;;0.20;0.20;;;2.90;99.90;;;;;;5148893;27;20092;-89
2022/02/21 12:56:39;;;;;;;0.17;0.17;;;3.00;99.90;;;;;;5137146;27;20114;-90
2022/02/21 12:59:06;;;;;;;0.20;0.20;;;3.50;99.90;;;;;;5143909;27;20031;-85
2022/02/21 13:01:33;;;;;;;0.20;0.20;;;3.20;99.90;;;;;;5101016;27;20054;-89
2022/02/21 13:04:01;;;;;;;0.10;0.10;;;3.30;99.90;;;;;;5091896;28;20040;-85
2022/02/21 13:06:29;;;;;;;0.10;0.10;;;3.30;99.90;;;;;;5097262;28;20404;-89